sensor_id;sensor_type;location;lat;lon;timestamp;P1;durP1;ratioP1;P2;durP2;ratioP2
58581;SDS011;44361;51.476;5.700;2023-06-14T00:02:16;9.70;;;5.57;;
58581;SDS011;44361;51.476;5.700;2023-06-14T00:04:42;12.13;;;6.43;;
58581;SDS011;44361;51.476;5.700;2023-06-14T00:07:08;10.75;;;5.43;;
58581;SDS011;44361;51.476;5.700;2023-06-14T00:09:34;9.30;;;5.60;;
58581;SDS011;44361;51.476;5.700;2023-06-14T00:12:00;8.68;;;5.57;;
58581;SDS011;44361;51.476;5.700;2023-06-14T00:14:26;10.80;;;6.05;;
58581;SDS011;44361;51.476;5.700;2023-06-14T00:16:51;14.00;;;6.05;;
58581;SDS011;44361;51.476;5.700;2023-06-14T00:19:23;10.48;;;5.93;;
58581;SDS011;44361;51.476;5.700;2023-06-14T00:21:49;9.18;;;5.35;;
58581;SDS011;44361;51.476;5.700;2023-06-14T00:24:16;9.30;;;5.38;;
58581;SDS011;44361;51.476;5.700;2023-06-14T00:26:42;10.13;;;5.65;;
58581;SDS011;44361;51.476;5.700;2023-06-14T00:29:08;7.38;;;5.20;;
58581;SDS011;44361;51.476;5.700;2023-06-14T00:31:33;8.60;;;5.50;;
58581;SDS011;44361;51.476;5.700;2023-06-14T00:33:59;8.50;;;5.22;;
58581;SDS011;44361;51.476;5.700;2023-06-14T00:36:25;7.72;;;5.68;;
58581;SDS011;44361;51.476;5.700;2023-06-14T00:38:50;7.00;;;5.28;;
58581;SDS011;44361;51.476;5.700;2023-06-14T00:41:16;10.75;;;5.68;;
58581;SDS011;44361;51.476;5.700;2023-06-14T00:43:42;11.35;;;5.55;;
58581;SDS011;44361;51.476;5.700;2023-06-14T00:46:07;7.88;;;5.28;;
58581;SDS011;44361;51.476;5.700;2023-06-14T00:48:33;7.13;;;5.07;;
58581;SDS011;44361;51.476;5.700;2023-06-14T00:51:00;12.07;;;6.07;;
58581;SDS011;44361;51.476;5.700;2023-06-14T00:53:28;8.40;;;5.63;;
58581;SDS011;44361;51.476;5.700;2023-06-14T00:55:55;9.25;;;5.70;;
58581;SDS011;44361;51.476;5.700;2023-06-14T00:58:21;7.57;;;5.32;;
58581;SDS011;44361;51.476;5.700;2023-06-14T01:00:47;8.40;;;5.35;;
58581;SDS011;44361;51.476;5.700;2023-06-14T01:03:13;7.95;;;5.68;;
58581;SDS011;44361;51.476;5.700;2023-06-14T01:05:46;9.00;;;5.40;;
58581;SDS011;44361;51.476;5.700;2023-06-14T01:08:28;8.27;;;5.20;;
58581;SDS011;44361;51.476;5.700;2023-06-14T01:11:05;8.85;;;5.40;;
58581;SDS011;44361;51.476;5.700;2023-06-14T01:13:40;9.13;;;5.15;;
58581;SDS011;44361;51.476;5.700;2023-06-14T01:16:10;8.68;;;5.45;;
58581;SDS011;44361;51.476;5.700;2023-06-14T01:18:36;7.70;;;5.00;;
58581;SDS011;44361;51.476;5.700;2023-06-14T01:21:02;9.55;;;5.53;;
58581;SDS011;44361;51.476;5.700;2023-06-14T01:23:31;9.07;;;5.22;;
58581;SDS011;44361;51.476;5.700;2023-06-14T01:25:57;9.05;;;4.80;;
58581;SDS011;44361;51.476;5.700;2023-06-14T01:28:24;8.05;;;5.22;;
58581;SDS011;44361;51.476;5.700;2023-06-14T01:30:52;7.93;;;4.88;;
58581;SDS011;44361;51.476;5.700;2023-06-14T01:33:24;7.38;;;4.75;;
58581;SDS011;44361;51.476;5.700;2023-06-14T01:35:52;8.95;;;5.13;;
58581;SDS011;44361;51.476;5.700;2023-06-14T01:38:21;8.13;;;5.43;;
58581;SDS011;44361;51.476;5.700;2023-06-14T01:40:49;9.13;;;4.97;;
58581;SDS011;44361;51.476;5.700;2023-06-14T01:43:15;9.93;;;5.32;;
58581;SDS011;44361;51.476;5.700;2023-06-14T01:45:42;8.80;;;4.75;;
58581;SDS011;44361;51.476;5.700;2023-06-14T01:48:09;6.78;;;4.72;;
58581;SDS011;44361;51.476;5.700;2023-06-14T01:50:34;8.45;;;4.88;;
58581;SDS011;44361;51.476;5.700;2023-06-14T01:53:00;6.88;;;4.38;;
58581;SDS011;44361;51.476;5.700;2023-06-14T01:55:26;7.90;;;5.25;;
58581;SDS011;44361;51.476;5.700;2023-06-14T01:57:52;7.50;;;4.97;;
58581;SDS011;44361;51.476;5.700;2023-06-14T02:00:18;7.43;;;4.55;;
58581;SDS011;44361;51.476;5.700;2023-06-14T02:02:44;7.65;;;4.63;;
58581;SDS011;44361;51.476;5.700;2023-06-14T02:05:11;7.45;;;4.43;;
58581;SDS011;44361;51.476;5.700;2023-06-14T02:07:36;7.28;;;4.28;;
58581;SDS011;44361;51.476;5.700;2023-06-14T02:10:03;7.25;;;4.35;;
58581;SDS011;44361;51.476;5.700;2023-06-14T02:12:29;7.40;;;4.22;;
58581;SDS011;44361;51.476;5.700;2023-06-14T02:14:55;8.30;;;4.70;;
58581;SDS011;44361;51.476;5.700;2023-06-14T02:17:21;6.10;;;3.95;;
58581;SDS011;44361;51.476;5.700;2023-06-14T02:19:47;5.88;;;4.07;;
58581;SDS011;44361;51.476;5.700;2023-06-14T02:22:14;6.55;;;3.78;;
58581;SDS011;44361;51.476;5.700;2023-06-14T02:24:40;10.52;;;4.15;;
58581;SDS011;44361;51.476;5.700;2023-06-14T02:27:06;6.07;;;4.22;;
58581;SDS011;44361;51.476;5.700;2023-06-14T02:29:31;7.47;;;4.28;;
58581;SDS011;44361;51.476;5.700;2023-06-14T02:31:57;12.55;;;4.15;;
58581;SDS011;44361;51.476;5.700;2023-06-14T02:34:22;6.88;;;4.07;;
58581;SDS011;44361;51.476;5.700;2023-06-14T02:36:48;6.45;;;4.15;;
58581;SDS011;44361;51.476;5.700;2023-06-14T02:39:14;7.05;;;3.80;;
58581;SDS011;44361;51.476;5.700;2023-06-14T02:41:40;6.53;;;3.80;;
58581;SDS011;44361;51.476;5.700;2023-06-14T02:44:06;6.03;;;4.30;;
58581;SDS011;44361;51.476;5.700;2023-06-14T02:46:31;12.48;;;4.70;;
58581;SDS011;44361;51.476;5.700;2023-06-14T02:48:57;10.32;;;3.75;;
58581;SDS011;44361;51.476;5.700;2023-06-14T02:51:23;7.13;;;4.15;;
58581;SDS011;44361;51.476;5.700;2023-06-14T02:53:48;8.95;;;4.03;;
58581;SDS011;44361;51.476;5.700;2023-06-14T02:56:14;9.55;;;3.88;;
58581;SDS011;44361;51.476;5.700;2023-06-14T02:58:42;11.00;;;4.28;;
58581;SDS011;44361;51.476;5.700;2023-06-14T03:01:07;6.60;;;3.88;;
58581;SDS011;44361;51.476;5.700;2023-06-14T03:03:35;7.18;;;4.13;;
58581;SDS011;44361;51.476;5.700;2023-06-14T03:06:00;7.65;;;4.22;;
58581;SDS011;44361;51.476;5.700;2023-06-14T03:08:30;7.90;;;3.67;;
58581;SDS011;44361;51.476;5.700;2023-06-14T03:10:56;9.20;;;3.95;;
58581;SDS011;44361;51.476;5.700;2023-06-14T03:13:22;6.25;;;4.20;;
58581;SDS011;44361;51.476;5.700;2023-06-14T03:15:48;9.05;;;3.80;;
58581;SDS011;44361;51.476;5.700;2023-06-14T03:18:15;8.00;;;4.35;;
58581;SDS011;44361;51.476;5.700;2023-06-14T03:20:41;8.55;;;3.67;;
58581;SDS011;44361;51.476;5.700;2023-06-14T03:23:10;6.13;;;3.78;;
58581;SDS011;44361;51.476;5.700;2023-06-14T03:25:36;9.15;;;4.70;;
58581;SDS011;44361;51.476;5.700;2023-06-14T03:28:03;8.15;;;4.28;;
58581;SDS011;44361;51.476;5.700;2023-06-14T03:30:30;7.28;;;3.92;;
58581;SDS011;44361;51.476;5.700;2023-06-14T03:32:56;6.32;;;4.22;;
58581;SDS011;44361;51.476;5.700;2023-06-14T03:35:22;7.38;;;3.53;;
58581;SDS011;44361;51.476;5.700;2023-06-14T03:37:48;8.57;;;4.50;;
58581;SDS011;44361;51.476;5.700;2023-06-14T03:40:15;8.35;;;4.03;;
58581;SDS011;44361;51.476;5.700;2023-06-14T03:42:42;10.75;;;4.30;;
58581;SDS011;44361;51.476;5.700;2023-06-14T03:45:08;5.78;;;3.80;;
58581;SDS011;44361;51.476;5.700;2023-06-14T03:47:34;6.03;;;3.90;;
58581;SDS011;44361;51.476;5.700;2023-06-14T03:50:01;8.65;;;3.78;;
58581;SDS011;44361;51.476;5.700;2023-06-14T03:52:27;7.97;;;3.30;;
58581;SDS011;44361;51.476;5.700;2023-06-14T03:54:53;10.30;;;4.28;;
58581;SDS011;44361;51.476;5.700;2023-06-14T03:57:18;6.75;;;4.13;;
58581;SDS011;44361;51.476;5.700;2023-06-14T03:59:45;9.13;;;4.32;;
58581;SDS011;44361;51.476;5.700;2023-06-14T04:02:10;7.60;;;4.50;;
58581;SDS011;44361;51.476;5.700;2023-06-14T04:04:36;7.32;;;3.88;;
58581;SDS011;44361;51.476;5.700;2023-06-14T04:07:02;10.80;;;4.05;;
58581;SDS011;44361;51.476;5.700;2023-06-14T04:09:29;8.63;;;4.25;;
58581;SDS011;44361;51.476;5.700;2023-06-14T04:11:55;5.68;;;3.38;;
58581;SDS011;44361;51.476;5.700;2023-06-14T04:14:20;8.20;;;4.20;;
58581;SDS011;44361;51.476;5.700;2023-06-14T04:16:47;6.15;;;4.05;;
58581;SDS011;44361;51.476;5.700;2023-06-14T04:19:13;7.03;;;3.67;;
58581;SDS011;44361;51.476;5.700;2023-06-14T04:21:39;7.57;;;4.03;;
58581;SDS011;44361;51.476;5.700;2023-06-14T04:24:05;8.38;;;3.90;;
58581;SDS011;44361;51.476;5.700;2023-06-14T04:26:31;5.03;;;3.70;;
58581;SDS011;44361;51.476;5.700;2023-06-14T04:28:58;9.05;;;3.35;;
58581;SDS011;44361;51.476;5.700;2023-06-14T04:31:28;9.18;;;4.10;;
58581;SDS011;44361;51.476;5.700;2023-06-14T04:33:54;10.50;;;4.00;;
58581;SDS011;44361;51.476;5.700;2023-06-14T04:36:20;8.32;;;3.80;;
58581;SDS011;44361;51.476;5.700;2023-06-14T04:38:46;8.75;;;4.15;;
58581;SDS011;44361;51.476;5.700;2023-06-14T04:41:14;8.48;;;4.20;;
58581;SDS011;44361;51.476;5.700;2023-06-14T04:43:41;8.60;;;3.92;;
58581;SDS011;44361;51.476;5.700;2023-06-14T04:46:08;8.95;;;4.18;;
58581;SDS011;44361;51.476;5.700;2023-06-14T04:48:36;7.05;;;4.20;;
58581;SDS011;44361;51.476;5.700;2023-06-14T04:51:08;6.43;;;3.72;;
58581;SDS011;44361;51.476;5.700;2023-06-14T04:53:34;8.60;;;4.38;;
58581;SDS011;44361;51.476;5.700;2023-06-14T04:56:00;9.23;;;4.47;;
58581;SDS011;44361;51.476;5.700;2023-06-14T04:58:29;6.80;;;4.15;;
58581;SDS011;44361;51.476;5.700;2023-06-14T05:00:55;10.13;;;4.55;;
58581;SDS011;44361;51.476;5.700;2023-06-14T05:03:21;7.75;;;4.30;;
58581;SDS011;44361;51.476;5.700;2023-06-14T05:05:48;7.43;;;3.90;;
58581;SDS011;44361;51.476;5.700;2023-06-14T05:08:15;12.60;;;4.32;;
58581;SDS011;44361;51.476;5.700;2023-06-14T05:10:41;7.78;;;4.25;;
58581;SDS011;44361;51.476;5.700;2023-06-14T05:13:06;6.70;;;4.03;;
58581;SDS011;44361;51.476;5.700;2023-06-14T05:15:32;11.48;;;4.50;;
58581;SDS011;44361;51.476;5.700;2023-06-14T05:17:58;5.47;;;3.88;;
58581;SDS011;44361;51.476;5.700;2023-06-14T05:20:24;7.80;;;4.55;;
58581;SDS011;44361;51.476;5.700;2023-06-14T05:22:52;5.18;;;3.83;;
58581;SDS011;44361;51.476;5.700;2023-06-14T05:25:18;10.40;;;3.90;;
58581;SDS011;44361;51.476;5.700;2023-06-14T05:27:45;7.60;;;3.47;;
58581;SDS011;44361;51.476;5.700;2023-06-14T05:30:11;6.53;;;3.45;;
58581;SDS011;44361;51.476;5.700;2023-06-14T05:32:37;11.60;;;3.80;;
58581;SDS011;44361;51.476;5.700;2023-06-14T05:35:03;8.07;;;3.60;;
58581;SDS011;44361;51.476;5.700;2023-06-14T05:37:29;4.93;;;3.22;;
58581;SDS011;44361;51.476;5.700;2023-06-14T05:39:55;8.65;;;4.00;;
58581;SDS011;44361;51.476;5.700;2023-06-14T05:42:21;7.28;;;3.72;;
58581;SDS011;44361;51.476;5.700;2023-06-14T05:44:47;6.28;;;3.50;;
58581;SDS011;44361;51.476;5.700;2023-06-14T05:47:12;6.80;;;3.47;;
58581;SDS011;44361;51.476;5.700;2023-06-14T05:49:38;9.55;;;3.33;;
58581;SDS011;44361;51.476;5.700;2023-06-14T05:52:03;7.93;;;3.10;;
58581;SDS011;44361;51.476;5.700;2023-06-14T05:54:29;5.38;;;3.05;;
58581;SDS011;44361;51.476;5.700;2023-06-14T05:56:55;11.35;;;3.88;;
58581;SDS011;44361;51.476;5.700;2023-06-14T05:59:26;8.32;;;3.45;;
58581;SDS011;44361;51.476;5.700;2023-06-14T06:01:54;7.95;;;3.40;;
58581;SDS011;44361;51.476;5.700;2023-06-14T06:04:19;11.48;;;3.85;;
58581;SDS011;44361;51.476;5.700;2023-06-14T06:06:45;7.47;;;3.35;;
58581;SDS011;44361;51.476;5.700;2023-06-14T06:09:11;7.65;;;3.42;;
58581;SDS011;44361;51.476;5.700;2023-06-14T06:11:37;18.35;;;3.65;;
58581;SDS011;44361;51.476;5.700;2023-06-14T06:14:02;5.40;;;3.03;;
58581;SDS011;44361;51.476;5.700;2023-06-14T06:16:28;9.18;;;3.63;;
58581;SDS011;44361;51.476;5.700;2023-06-14T06:18:53;15.20;;;3.58;;
58581;SDS011;44361;51.476;5.700;2023-06-14T06:21:19;7.75;;;3.15;;
58581;SDS011;44361;51.476;5.700;2023-06-14T06:23:44;6.47;;;2.65;;
58581;SDS011;44361;51.476;5.700;2023-06-14T06:26:10;8.70;;;3.13;;
58581;SDS011;44361;51.476;5.700;2023-06-14T06:28:35;8.85;;;3.75;;
58581;SDS011;44361;51.476;5.700;2023-06-14T06:31:01;6.90;;;3.05;;
58581;SDS011;44361;51.476;5.700;2023-06-14T06:33:28;6.70;;;2.97;;
58581;SDS011;44361;51.476;5.700;2023-06-14T06:35:53;8.13;;;3.33;;
58581;SDS011;44361;51.476;5.700;2023-06-14T06:38:19;6.90;;;2.80;;
58581;SDS011;44361;51.476;5.700;2023-06-14T06:40:44;7.30;;;2.63;;
58581;SDS011;44361;51.476;5.700;2023-06-14T06:43:10;6.93;;;2.95;;
58581;SDS011;44361;51.476;5.700;2023-06-14T06:45:38;5.97;;;3.28;;
58581;SDS011;44361;51.476;5.700;2023-06-14T06:48:05;8.10;;;3.00;;
58581;SDS011;44361;51.476;5.700;2023-06-14T06:50:30;8.00;;;3.03;;
58581;SDS011;44361;51.476;5.700;2023-06-14T06:52:56;7.80;;;3.05;;
58581;SDS011;44361;51.476;5.700;2023-06-14T06:55:22;10.27;;;3.10;;
58581;SDS011;44361;51.476;5.700;2023-06-14T06:57:48;5.82;;;3.13;;
58581;SDS011;44361;51.476;5.700;2023-06-14T07:00:14;8.60;;;3.30;;
58581;SDS011;44361;51.476;5.700;2023-06-14T07:02:41;7.95;;;3.10;;
58581;SDS011;44361;51.476;5.700;2023-06-14T07:05:06;8.25;;;3.17;;
58581;SDS011;44361;51.476;5.700;2023-06-14T07:07:32;8.75;;;3.38;;
58581;SDS011;44361;51.476;5.700;2023-06-14T07:09:59;9.13;;;2.78;;
58581;SDS011;44361;51.476;5.700;2023-06-14T07:12:25;11.07;;;3.10;;
58581;SDS011;44361;51.476;5.700;2023-06-14T07:14:51;7.82;;;3.33;;
58581;SDS011;44361;51.476;5.700;2023-06-14T07:17:16;5.65;;;2.92;;
58581;SDS011;44361;51.476;5.700;2023-06-14T07:19:42;7.78;;;3.63;;
58581;SDS011;44361;51.476;5.700;2023-06-14T07:22:07;6.25;;;3.03;;
58581;SDS011;44361;51.476;5.700;2023-06-14T07:24:33;6.78;;;2.88;;
58581;SDS011;44361;51.476;5.700;2023-06-14T07:27:01;7.97;;;3.35;;
58581;SDS011;44361;51.476;5.700;2023-06-14T07:29:28;8.88;;;2.97;;
58581;SDS011;44361;51.476;5.700;2023-06-14T07:31:53;8.25;;;2.88;;
58581;SDS011;44361;51.476;5.700;2023-06-14T07:34:19;9.77;;;3.03;;
58581;SDS011;44361;51.476;5.700;2023-06-14T07:36:44;6.45;;;2.72;;
58581;SDS011;44361;51.476;5.700;2023-06-14T07:39:10;6.82;;;2.25;;
58581;SDS011;44361;51.476;5.700;2023-06-14T07:41:36;6.57;;;2.67;;
58581;SDS011;44361;51.476;5.700;2023-06-14T07:44:01;5.72;;;2.95;;
58581;SDS011;44361;51.476;5.700;2023-06-14T07:46:27;7.85;;;2.63;;
58581;SDS011;44361;51.476;5.700;2023-06-14T07:48:53;4.78;;;2.40;;
58581;SDS011;44361;51.476;5.700;2023-06-14T07:51:18;3.78;;;2.35;;
58581;SDS011;44361;51.476;5.700;2023-06-14T07:53:44;8.90;;;2.28;;
58581;SDS011;44361;51.476;5.700;2023-06-14T07:56:10;4.95;;;2.03;;
58581;SDS011;44361;51.476;5.700;2023-06-14T07:58:36;5.25;;;2.20;;
58581;SDS011;44361;51.476;5.700;2023-06-14T08:01:01;4.57;;;2.20;;
58581;SDS011;44361;51.476;5.700;2023-06-14T08:03:31;6.30;;;2.00;;
58581;SDS011;44361;51.476;5.700;2023-06-14T08:05:57;8.93;;;2.20;;
58581;SDS011;44361;51.476;5.700;2023-06-14T08:08:22;5.95;;;2.10;;
58581;SDS011;44361;51.476;5.700;2023-06-14T08:10:48;4.13;;;1.70;;
58581;SDS011;44361;51.476;5.700;2023-06-14T08:13:13;6.03;;;1.80;;
58581;SDS011;44361;51.476;5.700;2023-06-14T08:15:39;3.50;;;1.80;;
58581;SDS011;44361;51.476;5.700;2023-06-14T08:18:04;10.48;;;1.70;;
58581;SDS011;44361;51.476;5.700;2023-06-14T08:20:30;3.30;;;2.08;;
58581;SDS011;44361;51.476;5.700;2023-06-14T08:22:56;7.60;;;1.90;;
58581;SDS011;44361;51.476;5.700;2023-06-14T08:25:23;6.60;;;2.15;;
58581;SDS011;44361;51.476;5.700;2023-06-14T08:27:48;6.15;;;1.73;;
58581;SDS011;44361;51.476;5.700;2023-06-14T08:30:15;4.70;;;2.33;;
58581;SDS011;44361;51.476;5.700;2023-06-14T08:32:42;5.43;;;2.00;;
58581;SDS011;44361;51.476;5.700;2023-06-14T08:35:08;6.22;;;2.10;;
58581;SDS011;44361;51.476;5.700;2023-06-14T08:37:37;7.38;;;2.00;;
58581;SDS011;44361;51.476;5.700;2023-06-14T08:40:04;4.60;;;1.90;;
58581;SDS011;44361;51.476;5.700;2023-06-14T08:42:42;6.15;;;1.63;;
58581;SDS011;44361;51.476;5.700;2023-06-14T08:45:08;4.28;;;1.70;;
58581;SDS011;44361;51.476;5.700;2023-06-14T08:47:34;2.67;;;1.33;;
58581;SDS011;44361;51.476;5.700;2023-06-14T08:50:02;4.90;;;1.45;;
58581;SDS011;44361;51.476;5.700;2023-06-14T08:52:29;4.00;;;1.45;;
58581;SDS011;44361;51.476;5.700;2023-06-14T08:55:05;6.00;;;1.20;;
58581;SDS011;44361;51.476;5.700;2023-06-14T08:57:33;3.70;;;1.70;;
58581;SDS011;44361;51.476;5.700;2023-06-14T09:00:02;3.40;;;1.30;;
58581;SDS011;44361;51.476;5.700;2023-06-14T09:02:36;4.05;;;1.23;;
58581;SDS011;44361;51.476;5.700;2023-06-14T09:05:01;1.88;;;1.02;;
58581;SDS011;44361;51.476;5.700;2023-06-14T09:07:27;2.72;;;1.15;;
58581;SDS011;44361;51.476;5.700;2023-06-14T09:10:15;2.13;;;0.75;;
58581;SDS011;44361;51.476;5.700;2023-06-14T09:12:40;1.67;;;0.93;;
58581;SDS011;44361;51.476;5.700;2023-06-14T09:15:06;5.28;;;0.88;;
58581;SDS011;44361;51.476;5.700;2023-06-14T09:17:33;2.85;;;0.82;;
58581;SDS011;44361;51.476;5.700;2023-06-14T09:20:03;1.98;;;1.00;;
58581;SDS011;44361;51.476;5.700;2023-06-14T09:22:34;1.23;;;0.90;;
58581;SDS011;44361;51.476;5.700;2023-06-14T09:25:00;1.92;;;0.95;;
58581;SDS011;44361;51.476;5.700;2023-06-14T09:27:26;2.55;;;0.93;;
58581;SDS011;44361;51.476;5.700;2023-06-14T09:29:53;1.27;;;1.10;;
58581;SDS011;44361;51.476;5.700;2023-06-14T09:32:18;1.33;;;0.70;;
58581;SDS011;44361;51.476;5.700;2023-06-14T09:34:45;1.13;;;0.70;;
58581;SDS011;44361;51.476;5.700;2023-06-14T09:37:11;1.88;;;0.80;;
58581;SDS011;44361;51.476;5.700;2023-06-14T09:39:49;3.50;;;1.10;;
58581;SDS011;44361;51.476;5.700;2023-06-14T09:42:16;1.52;;;1.13;;
58581;SDS011;44361;51.476;5.700;2023-06-14T09:44:48;3.03;;;1.00;;
58581;SDS011;44361;51.476;5.700;2023-06-14T09:47:17;1.73;;;1.00;;
58581;SDS011;44361;51.476;5.700;2023-06-14T09:49:44;2.42;;;1.63;;
58581;SDS011;44361;51.476;5.700;2023-06-14T09:52:19;1.02;;;0.80;;
58581;SDS011;44361;51.476;5.700;2023-06-14T09:54:46;3.70;;;1.08;;
58581;SDS011;44361;51.476;5.700;2023-06-14T09:57:14;1.05;;;0.85;;
58581;SDS011;44361;51.476;5.700;2023-06-14T09:59:44;3.60;;;1.08;;
58581;SDS011;44361;51.476;5.700;2023-06-14T10:02:18;2.08;;;1.05;;
58581;SDS011;44361;51.476;5.700;2023-06-14T10:04:58;2.05;;;1.00;;
58581;SDS011;44361;51.476;5.700;2023-06-14T10:07:30;2.30;;;1.08;;
58581;SDS011;44361;51.476;5.700;2023-06-14T10:10:02;2.10;;;1.20;;
58581;SDS011;44361;51.476;5.700;2023-06-14T10:12:27;4.75;;;1.20;;
58581;SDS011;44361;51.476;5.700;2023-06-14T10:14:53;2.30;;;1.25;;
58581;SDS011;44361;51.476;5.700;2023-06-14T10:17:22;2.10;;;1.20;;
58581;SDS011;44361;51.476;5.700;2023-06-14T10:19:56;2.10;;;0.90;;
58581;SDS011;44361;51.476;5.700;2023-06-14T10:22:50;3.03;;;1.17;;
58581;SDS011;44361;51.476;5.700;2023-06-14T10:25:26;2.67;;;0.80;;
58581;SDS011;44361;51.476;5.700;2023-06-14T10:28:02;1.75;;;1.20;;
58581;SDS011;44361;51.476;5.700;2023-06-14T10:33:49;7.32;;;1.20;;
58581;SDS011;44361;51.476;5.700;2023-06-14T10:36:30;1.63;;;0.93;;
58581;SDS011;44361;51.476;5.700;2023-06-14T10:38:59;3.33;;;1.10;;
58581;SDS011;44361;51.476;5.700;2023-06-14T10:41:31;3.13;;;1.33;;
58581;SDS011;44361;51.476;5.700;2023-06-14T10:46:39;1.30;;;0.88;;
58581;SDS011;44361;51.476;5.700;2023-06-14T10:49:05;3.63;;;1.50;;
58581;SDS011;44361;51.476;5.700;2023-06-14T10:51:41;2.53;;;1.23;;
58581;SDS011;44361;51.476;5.700;2023-06-14T10:54:14;7.55;;;1.40;;
58581;SDS011;44361;51.476;5.700;2023-06-14T10:56:47;3.05;;;1.20;;
58581;SDS011;44361;51.476;5.700;2023-06-14T10:59:17;3.88;;;1.10;;
58581;SDS011;44361;51.476;5.700;2023-06-14T11:04:48;2.85;;;1.15;;
58581;SDS011;44361;51.476;5.700;2023-06-14T11:10:00;1.98;;;1.15;;
58581;SDS011;44361;51.476;5.700;2023-06-14T11:12:32;4.75;;;1.27;;
58581;SDS011;44361;51.476;5.700;2023-06-14T11:15:00;3.60;;;1.17;;
58581;SDS011;44361;51.476;5.700;2023-06-14T11:17:26;4.22;;;1.13;;
58581;SDS011;44361;51.476;5.700;2023-06-14T11:20:07;4.90;;;1.05;;
58581;SDS011;44361;51.476;5.700;2023-06-14T11:22:43;3.42;;;1.10;;
58581;SDS011;44361;51.476;5.700;2023-06-14T11:25:09;5.38;;;1.27;;
58581;SDS011;44361;51.476;5.700;2023-06-14T11:27:38;8.05;;;1.27;;
58581;SDS011;44361;51.476;5.700;2023-06-14T11:30:06;2.33;;;1.13;;
58581;SDS011;44361;51.476;5.700;2023-06-14T11:32:32;4.30;;;1.52;;
58581;SDS011;44361;51.476;5.700;2023-06-14T11:34:58;2.95;;;1.20;;
58581;SDS011;44361;51.476;5.700;2023-06-14T11:37:25;1.98;;;1.20;;
58581;SDS011;44361;51.476;5.700;2023-06-14T11:39:55;1.88;;;0.90;;
58581;SDS011;44361;51.476;5.700;2023-06-14T11:42:22;1.60;;;0.93;;
58581;SDS011;44361;51.476;5.700;2023-06-14T11:44:48;1.83;;;0.98;;
58581;SDS011;44361;51.476;5.700;2023-06-14T11:47:14;2.40;;;1.10;;
58581;SDS011;44361;51.476;5.700;2023-06-14T11:49:40;1.52;;;1.00;;
58581;SDS011;44361;51.476;5.700;2023-06-14T11:52:06;3.33;;;1.13;;
58581;SDS011;44361;51.476;5.700;2023-06-14T11:54:32;5.93;;;1.58;;
58581;SDS011;44361;51.476;5.700;2023-06-14T11:56:58;2.38;;;1.27;;
58581;SDS011;44361;51.476;5.700;2023-06-14T11:59:24;3.20;;;1.08;;
58581;SDS011;44361;51.476;5.700;2023-06-14T12:01:50;2.75;;;0.82;;
58581;SDS011;44361;51.476;5.700;2023-06-14T12:04:28;2.10;;;0.93;;
58581;SDS011;44361;51.476;5.700;2023-06-14T12:06:54;1.23;;;0.93;;
58581;SDS011;44361;51.476;5.700;2023-06-14T12:09:21;3.75;;;0.95;;
58581;SDS011;44361;51.476;5.700;2023-06-14T12:11:48;3.85;;;1.05;;
58581;SDS011;44361;51.476;5.700;2023-06-14T12:14:14;1.52;;;1.05;;
58581;SDS011;44361;51.476;5.700;2023-06-14T12:16:41;2.20;;;1.33;;
58581;SDS011;44361;51.476;5.700;2023-06-14T12:19:08;1.90;;;1.10;;
58581;SDS011;44361;51.476;5.700;2023-06-14T12:21:36;4.00;;;1.42;;
58581;SDS011;44361;51.476;5.700;2023-06-14T12:24:03;3.60;;;1.17;;
58581;SDS011;44361;51.476;5.700;2023-06-14T12:26:32;5.32;;;0.80;;
58581;SDS011;44361;51.476;5.700;2023-06-14T12:28:58;1.73;;;1.02;;
58581;SDS011;44361;51.476;5.700;2023-06-14T12:31:23;4.43;;;0.80;;
58581;SDS011;44361;51.476;5.700;2023-06-14T12:33:49;1.77;;;0.80;;
58581;SDS011;44361;51.476;5.700;2023-06-14T12:36:15;1.40;;;1.00;;
58581;SDS011;44361;51.476;5.700;2023-06-14T12:38:42;4.40;;;1.00;;
58581;SDS011;44361;51.476;5.700;2023-06-14T12:41:08;1.35;;;1.00;;
58581;SDS011;44361;51.476;5.700;2023-06-14T12:43:33;1.63;;;1.00;;
58581;SDS011;44361;51.476;5.700;2023-06-14T12:45:59;3.00;;;1.35;;
58581;SDS011;44361;51.476;5.700;2023-06-14T12:48:25;1.83;;;1.15;;
58581;SDS011;44361;51.476;5.700;2023-06-14T12:50:56;1.65;;;0.88;;
58581;SDS011;44361;51.476;5.700;2023-06-14T12:53:21;0.98;;;0.65;;
58581;SDS011;44361;51.476;5.700;2023-06-14T12:55:48;1.80;;;1.10;;
58581;SDS011;44361;51.476;5.700;2023-06-14T12:58:13;2.15;;;0.80;;
58581;SDS011;44361;51.476;5.700;2023-06-14T13:00:39;2.60;;;1.08;;
58581;SDS011;44361;51.476;5.700;2023-06-14T13:03:05;4.40;;;0.80;;
58581;SDS011;44361;51.476;5.700;2023-06-14T13:05:31;2.03;;;0.88;;
58581;SDS011;44361;51.476;5.700;2023-06-14T13:07:58;6.18;;;0.95;;
58581;SDS011;44361;51.476;5.700;2023-06-14T13:10:24;2.47;;;1.00;;
58581;SDS011;44361;51.476;5.700;2023-06-14T13:12:51;1.00;;;0.70;;
58581;SDS011;44361;51.476;5.700;2023-06-14T13:15:16;3.95;;;1.58;;
58581;SDS011;44361;51.476;5.700;2023-06-14T13:17:42;6.97;;;0.90;;
58581;SDS011;44361;51.476;5.700;2023-06-14T13:20:13;1.83;;;1.00;;
58581;SDS011;44361;51.476;5.700;2023-06-14T13:22:39;3.15;;;0.80;;
58581;SDS011;44361;51.476;5.700;2023-06-14T13:25:04;1.83;;;0.88;;
58581;SDS011;44361;51.476;5.700;2023-06-14T13:27:31;2.95;;;0.70;;
58581;SDS011;44361;51.476;5.700;2023-06-14T13:29:56;1.42;;;0.75;;
58581;SDS011;44361;51.476;5.700;2023-06-14T13:32:22;1.10;;;0.90;;
58581;SDS011;44361;51.476;5.700;2023-06-14T13:34:47;1.58;;;0.70;;
58581;SDS011;44361;51.476;5.700;2023-06-14T13:37:13;1.73;;;0.90;;
58581;SDS011;44361;51.476;5.700;2023-06-14T13:39:39;5.53;;;0.73;;
58581;SDS011;44361;51.476;5.700;2023-06-14T13:42:05;0.68;;;0.50;;
58581;SDS011;44361;51.476;5.700;2023-06-14T13:44:30;0.50;;;0.50;;
58581;SDS011;44361;51.476;5.700;2023-06-14T13:46:56;2.10;;;0.80;;
58581;SDS011;44361;51.476;5.700;2023-06-14T13:49:21;1.02;;;0.70;;
58581;SDS011;44361;51.476;5.700;2023-06-14T13:51:47;2.78;;;0.50;;
58581;SDS011;44361;51.476;5.700;2023-06-14T13:54:13;1.63;;;0.57;;
58581;SDS011;44361;51.476;5.700;2023-06-14T13:56:42;3.83;;;0.50;;
58581;SDS011;44361;51.476;5.700;2023-06-14T13:59:07;1.15;;;0.70;;
58581;SDS011;44361;51.476;5.700;2023-06-14T14:01:33;1.63;;;0.52;;
58581;SDS011;44361;51.476;5.700;2023-06-14T14:03:59;0.80;;;0.55;;
58581;SDS011;44361;51.476;5.700;2023-06-14T14:06:25;1.30;;;0.60;;
58581;SDS011;44361;51.476;5.700;2023-06-14T14:08:51;1.35;;;0.63;;
58581;SDS011;44361;51.476;5.700;2023-06-14T14:11:17;3.42;;;0.80;;
58581;SDS011;44361;51.476;5.700;2023-06-14T14:13:43;1.27;;;0.68;;
58581;SDS011;44361;51.476;5.700;2023-06-14T14:16:09;1.55;;;0.60;;
58581;SDS011;44361;51.476;5.700;2023-06-14T14:18:35;1.63;;;0.50;;
58581;SDS011;44361;51.476;5.700;2023-06-14T14:21:01;2.15;;;0.75;;
58581;SDS011;44361;51.476;5.700;2023-06-14T14:23:27;1.52;;;0.60;;
58581;SDS011;44361;51.476;5.700;2023-06-14T14:25:53;1.10;;;0.40;;
58581;SDS011;44361;51.476;5.700;2023-06-14T14:28:18;3.45;;;0.70;;
58581;SDS011;44361;51.476;5.700;2023-06-14T14:30:45;1.38;;;0.80;;
58581;SDS011;44361;51.476;5.700;2023-06-14T14:33:12;2.38;;;0.60;;
58581;SDS011;44361;51.476;5.700;2023-06-14T14:35:45;3.03;;;0.60;;
58581;SDS011;44361;51.476;5.700;2023-06-14T14:38:11;1.30;;;0.80;;
58581;SDS011;44361;51.476;5.700;2023-06-14T14:40:37;1.02;;;0.68;;
58581;SDS011;44361;51.476;5.700;2023-06-14T14:43:02;1.35;;;0.75;;
58581;SDS011;44361;51.476;5.700;2023-06-14T14:45:28;5.32;;;1.38;;
58581;SDS011;44361;51.476;5.700;2023-06-14T14:47:53;3.25;;;1.02;;
58581;SDS011;44361;51.476;5.700;2023-06-14T14:50:19;1.67;;;0.80;;
58581;SDS011;44361;51.476;5.700;2023-06-14T14:52:44;4.03;;;0.65;;
58581;SDS011;44361;51.476;5.700;2023-06-14T14:55:10;2.00;;;0.60;;
58581;SDS011;44361;51.476;5.700;2023-06-14T14:57:36;4.45;;;0.82;;